KGSB/GSB METAR and TAF weather

Enter ICAO airport designator
Station Type Date Time Source
KGSB METAR 2019/09/21 21:56 UTC NOAA

KGSB 212156Z AUTO 21004KT 7SM CLR 28/17 A3019 RMK AO2 SLP226 T02800169 $


Station Type Date Time Source
KGSB Decoded METAR 2019/09/21 21:56 UTC NOAA

Seymour-Johnson Air Force Base, NC, United States (KGSB) 35-20N 077-58W
Sep 21, 2019 - 05:56 PM EDT / 2019.09.21 2156 UTC
Wind: from the SSW (210 degrees) at 5 MPH (4 KT):0
Visibility: 7 mile(s):0
Sky conditions: clear
Temperature: 82.4 F (28.0 C)
Dew Point: 62.4 F (16.9 C)
Relative Humidity: 50%
Pressure (altimeter): 30.19 in. Hg (1022 hPa)
ob: KGSB 212156Z AUTO 21004KT 7SM CLR 28/17 A3019 RMK AO2 SLP226 T02800169
cycle: 22

Station Type Date Time Source
KGSB TAF 2019/09/21 23:00 UTC NOAA

TAF
AMD KGSB 202350Z 2023/2202 VRB04KT 9999 SKC QNH3025INS
BECMG 2111/2112 24006KT 9999 SKC QNH3018INS TX28/2120Z TN12/2110Z LAST NO
AMDS AFT 2023 NEXT 2304

Example: see airport list